Airfield :







YOU CAN JOIN US ON...

 
LOGIN :

Register | Disclaimer

   EN    FR    IT 

 









Legend :    VFR   Marginal VFR   IFR   Intensive IFR   Very Intensive IFR
Visi :
Ceiling :
>= 8 km
>= 3000ft
5 to 8 km
1000 to 3000 ft
1500m to 5 km
500 to 1000 ft
800 to 1500m
200 to 500 ft
< 800m
< 200 ft
Symbols :   Thunderstorms  Fog  Heavy snow  Heavy precipitations  Wind > 20 kt






- Airport Elevation : 180 ft
- IATA code : YZV


CYZV - Sept-Iles

CURRENT METAR :
  • 161900Z 25012G18KT 30SM FEW040 FEW220 M02/M10 A2967 RMK CU1CI1 SLP052

EXPIRED METARs :
  • 161800Z 23011G17KT 30SM SCT040 OVC090 M03/M08 A2966 RMK SC4AC4 SLP050
  • 161700Z 22014KT 30SM BKN050 OVC090 M04/M09 A2967 RMK SC5AC3 SLP053

TAF TAF CYZV
Valid from the 16 at 18:00 until the 17 at 18:00 UTC


161739Z 1618/1718 25012G22KT P6SM FEW025 BKN080
TEMPO 1618/1702 21/2SM -SHSN
BECMG 1700/1702 27012KT
FM170200 27008KT P6SM FEW025 FEW080
BECMG 1705/1707 32012KT RMK NXT FCST BY 170000Z



MET'MAP, your aeronautical weather chart ! - Copyright ORBIFLY December 2007 - Disclaimer

ORBIFLY MET'MAP TEAM :

Programming & Development : Alexandra Zaïnal
Concept & original design : Baudouin d'Aumeries
Assistance for programming : Marc-Olivier Méhu
Technical & hardware support : Manuel Goepfert

Contact : metmap@orbifly.com




SOURCES & CREDITS :

   NOAA